sensor_id;sensor_type;location;lat;lon;timestamp;pressure;altitude;pressure_sealevel;temperature;humidity
37694;BME280;23531;50.122;8.644;2023-05-12T00:00:45;100273.44;;;14.23;nan
37694;BME280;23531;50.122;8.644;2023-05-12T00:02:46;100271.91;;;14.27;nan
37694;BME280;23531;50.122;8.644;2023-05-12T00:04:49;100272.97;;;14.26;nan
37694;BME280;23531;50.122;8.644;2023-05-12T00:06:50;100279.09;;;14.33;nan
37694;BME280;23531;50.122;8.644;2023-05-12T00:08:51;100277.19;;;14.45;nan
37694;BME280;23531;50.122;8.644;2023-05-12T00:10:53;100277.91;;;14.29;nan
37694;BME280;23531;50.122;8.644;2023-05-12T00:12:54;100278.38;;;14.26;nan
37694;BME280;23531;50.122;8.644;2023-05-12T00:14:55;100272.50;;;14.29;nan
37694;BME280;23531;50.122;8.644;2023-05-12T00:16:57;100279.69;;;14.23;nan
37694;BME280;23531;50.122;8.644;2023-05-12T00:18:58;100273.44;;;14.23;nan
37694;BME280;23531;50.122;8.644;2023-05-12T00:21:01;100273.22;;;14.24;nan
37694;BME280;23531;50.122;8.644;2023-05-12T00:23:03;100272.03;;;14.32;nan
37694;BME280;23531;50.122;8.644;2023-05-12T00:25:04;100271.69;;;14.28;nan
37694;BME280;23531;50.122;8.644;2023-05-12T00:27:06;100270.88;;;14.28;nan
37694;BME280;23531;50.122;8.644;2023-05-12T00:29:07;100267.69;;;14.31;nan
37694;BME280;23531;50.122;8.644;2023-05-12T00:31:08;100271.53;;;14.35;nan
37694;BME280;23531;50.122;8.644;2023-05-12T00:33:09;100276.75;;;14.25;nan
37694;BME280;23531;50.122;8.644;2023-05-12T00:35:11;100268.38;;;14.26;nan
37694;BME280;23531;50.122;8.644;2023-05-12T00:37:13;100269.22;;;14.27;nan
37694;BME280;23531;50.122;8.644;2023-05-12T00:39:15;100269.09;;;14.33;nan
37694;BME280;23531;50.122;8.644;2023-05-12T00:41:16;100271.81;;;14.33;nan
37694;BME280;23531;50.122;8.644;2023-05-12T00:43:18;100263.34;;;14.30;nan
37694;BME280;23531;50.122;8.644;2023-05-12T00:45:19;100267.09;;;14.40;nan
37694;BME280;23531;50.122;8.644;2023-05-12T00:47:20;100263.66;;;14.45;nan
37694;BME280;23531;50.122;8.644;2023-05-12T00:49:23;100258.75;;;14.30;nan
37694;BME280;23531;50.122;8.644;2023-05-12T00:51:28;100262.28;;;14.31;nan
37694;BME280;23531;50.122;8.644;2023-05-12T00:53:31;100256.88;;;14.31;nan
37694;BME280;23531;50.122;8.644;2023-05-12T00:55:33;100258.75;;;14.30;nan
37694;BME280;23531;50.122;8.644;2023-05-12T00:57:35;100256.88;;;14.31;nan
37694;BME280;23531;50.122;8.644;2023-05-12T00:59:37;100258.19;;;14.16;nan
37694;BME280;23531;50.122;8.644;2023-05-12T01:01:38;100262.56;;;13.94;nan
37694;BME280;23531;50.122;8.644;2023-05-12T01:03:44;100273.59;;;14.04;nan
37694;BME280;23531;50.122;8.644;2023-05-12T01:05:47;100270.41;;;14.07;nan
37694;BME280;23531;50.122;8.644;2023-05-12T01:07:49;100267.72;;;14.07;nan
37694;BME280;23531;50.122;8.644;2023-05-12T01:09:56;100275.81;;;14.07;nan
37694;BME280;23531;50.122;8.644;2023-05-12T01:12:05;100267.59;;;14.02;nan
37694;BME280;23531;50.122;8.644;2023-05-12T01:14:08;100270.75;;;14.11;nan
37694;BME280;23531;50.122;8.644;2023-05-12T01:16:11;100277.13;;;14.05;nan
37694;BME280;23531;50.122;8.644;2023-05-12T01:18:14;100274.41;;;13.93;nan
37694;BME280;23531;50.122;8.644;2023-05-12T01:20:17;100270.66;;;14.06;nan
37694;BME280;23531;50.122;8.644;2023-05-12T01:22:20;100277.34;;;13.92;nan
37694;BME280;23531;50.122;8.644;2023-05-12T01:24:23;100280.28;;;13.78;nan
37694;BME280;23531;50.122;8.644;2023-05-12T01:26:28;100279.47;;;13.90;nan
37694;BME280;23531;50.122;8.644;2023-05-12T01:28:31;100277.34;;;13.92;nan
37694;BME280;23531;50.122;8.644;2023-05-12T01:30:33;100276.66;;;13.96;nan
37694;BME280;23531;50.122;8.644;2023-05-12T01:32:37;100279.47;;;13.90;nan
37694;BME280;23531;50.122;8.644;2023-05-12T01:34:39;100286.41;;;13.97;nan
37694;BME280;23531;50.122;8.644;2023-05-12T01:36:41;100276.06;;;13.82;nan
37694;BME280;23531;50.122;8.644;2023-05-12T01:38:54;100287.09;;;13.69;nan
37694;BME280;23531;50.122;8.644;2023-05-12T01:40:56;100289.94;;;13.74;nan
37694;BME280;23531;50.122;8.644;2023-05-12T01:42:59;100285.22;;;13.70;nan
37694;BME280;23531;50.122;8.644;2023-05-12T01:45:00;100288.75;;;13.70;nan
37694;BME280;23531;50.122;8.644;2023-05-12T01:47:02;100288.97;;;13.69;nan
37694;BME280;23531;50.122;8.644;2023-05-12T01:49:04;100297.31;;;13.67;nan
37694;BME280;23531;50.122;8.644;2023-05-12T01:51:06;100292.13;;;13.66;nan
37694;BME280;23531;50.122;8.644;2023-05-12T01:53:08;100296.59;;;13.60;nan
37694;BME280;23531;50.122;8.644;2023-05-12T01:55:13;100300.00;;;13.56;nan
37694;BME280;23531;50.122;8.644;2023-05-12T01:57:15;100302.25;;;13.59;nan
37694;BME280;23531;50.122;8.644;2023-05-12T01:59:18;100307.88;;;13.57;nan
37694;BME280;23531;50.122;8.644;2023-05-12T02:01:20;100311.53;;;13.63;nan
37694;BME280;23531;50.122;8.644;2023-05-12T02:03:24;100309.88;;;13.62;nan
37694;BME280;23531;50.122;8.644;2023-05-12T02:05:28;100309.88;;;13.62;nan
37694;BME280;23531;50.122;8.644;2023-05-12T02:07:30;100318.22;;;13.60;nan
37694;BME280;23531;50.122;8.644;2023-05-12T02:09:31;100318.38;;;13.65;nan
37694;BME280;23531;50.122;8.644;2023-05-12T02:11:33;100310.97;;;13.72;nan
37694;BME280;23531;50.122;8.644;2023-05-12T02:13:35;100314.13;;;13.81;nan
37694;BME280;23531;50.122;8.644;2023-05-12T02:15:38;100318.63;;;13.87;nan
37694;BME280;23531;50.122;8.644;2023-05-12T02:17:40;100313.44;;;13.97;nan
37694;BME280;23531;50.122;8.644;2023-05-12T02:19:41;100318.13;;;13.90;nan
37694;BME280;23531;50.122;8.644;2023-05-12T02:21:43;100325.88;;;13.75;nan
37694;BME280;23531;50.122;8.644;2023-05-12T02:23:45;100328.09;;;13.66;nan
37694;BME280;23531;50.122;8.644;2023-05-12T02:25:50;100322.94;;;13.65;nan
37694;BME280;23531;50.122;8.644;2023-05-12T02:27:52;100326.81;;;13.69;nan
37694;BME280;23531;50.122;8.644;2023-05-12T02:29:53;100328.34;;;13.65;nan
37694;BME280;23531;50.122;8.644;2023-05-12T02:31:57;100328.19;;;13.60;nan
37694;BME280;23531;50.122;8.644;2023-05-12T02:33:59;100327.38;;;13.59;nan
37694;BME280;23531;50.122;8.644;2023-05-12T02:36:10;100330.56;;;13.68;nan
37694;BME280;23531;50.122;8.644;2023-05-12T02:38:12;100322.97;;;13.76;nan
37694;BME280;23531;50.122;8.644;2023-05-12T02:40:13;100320.00;;;13.78;nan
37694;BME280;23531;50.122;8.644;2023-05-12T02:42:15;100328.69;;;13.68;nan
37694;BME280;23531;50.122;8.644;2023-05-12T02:44:20;100327.16;;;13.61;nan
37694;BME280;23531;50.122;8.644;2023-05-12T02:46:22;100329.16;;;13.54;nan
37694;BME280;23531;50.122;8.644;2023-05-12T02:48:25;100336.47;;;13.35;nan
37694;BME280;23531;50.122;8.644;2023-05-12T02:50:26;100333.72;;;13.23;nan
37694;BME280;23531;50.122;8.644;2023-05-12T02:52:28;100336.56;;;13.28;nan
37694;BME280;23531;50.122;8.644;2023-05-12T02:54:30;100329.75;;;13.26;nan
37694;BME280;23531;50.122;8.644;2023-05-12T02:56:31;100331.66;;;13.07;nan
37694;BME280;23531;50.122;8.644;2023-05-12T02:58:33;100339.38;;;13.03;nan
37694;BME280;23531;50.122;8.644;2023-05-12T03:00:35;100333.03;;;12.98;nan
37694;BME280;23531;50.122;8.644;2023-05-12T03:02:37;100339.09;;;12.93;nan
37694;BME280;23531;50.122;8.644;2023-05-12T03:04:40;100333.25;;;12.96;nan
37694;BME280;23531;50.122;8.644;2023-05-12T03:06:42;100333.03;;;12.98;nan
37694;BME280;23531;50.122;8.644;2023-05-12T03:08:43;100333.44;;;13.13;nan
37694;BME280;23531;50.122;8.644;2023-05-12T03:10:45;100327.97;;;13.20;nan
37694;BME280;23531;50.122;8.644;2023-05-12T03:12:46;100327.44;;;13.29;nan
37694;BME280;23531;50.122;8.644;2023-05-12T03:14:48;100337.41;;;13.29;nan
37694;BME280;23531;50.122;8.644;2023-05-12T03:16:50;100338.38;;;13.46;nan
37694;BME280;23531;50.122;8.644;2023-05-12T03:18:51;100333.09;;;13.39;nan
37694;BME280;23531;50.122;8.644;2023-05-12T03:20:54;100338.88;;;13.43;nan
37694;BME280;23531;50.122;8.644;2023-05-12T03:22:56;100335.19;;;13.37;nan
37694;BME280;23531;50.122;8.644;2023-05-12T03:24:58;100332.34;;;13.32;nan
37694;BME280;23531;50.122;8.644;2023-05-12T03:26:59;100340.00;;;13.35;nan
37694;BME280;23531;50.122;8.644;2023-05-12T03:29:01;100339.63;;;13.32;nan
37694;BME280;23531;50.122;8.644;2023-05-12T03:31:02;100342.66;;;13.24;nan
37694;BME280;23531;50.122;8.644;2023-05-12T03:33:04;100340.06;;;13.17;nan
37694;BME280;23531;50.122;8.644;2023-05-12T03:35:08;100341.53;;;13.13;nan
37694;BME280;23531;50.122;8.644;2023-05-12T03:37:13;100337.47;;;13.22;nan
37694;BME280;23531;50.122;8.644;2023-05-12T03:39:15;100340.66;;;13.19;nan
37694;BME280;23531;50.122;8.644;2023-05-12T03:41:17;100342.88;;;13.22;nan
37694;BME280;23531;50.122;8.644;2023-05-12T03:43:18;100335.53;;;13.11;nan
37694;BME280;23531;50.122;8.644;2023-05-12T03:45:20;100340.19;;;13.22;nan
37694;BME280;23531;50.122;8.644;2023-05-12T03:47:21;100336.34;;;13.30;nan
37694;BME280;23531;50.122;8.644;2023-05-12T03:49:22;100343.81;;;13.16;nan
37694;BME280;23531;50.122;8.644;2023-05-12T03:51:24;100331.19;;;13.10;nan
37694;BME280;23531;50.122;8.644;2023-05-12T03:53:27;100326.09;;;13.02;nan
37694;BME280;23531;50.122;8.644;2023-05-12T03:55:28;100324.72;;;13.11;nan
37694;BME280;23531;50.122;8.644;2023-05-12T03:57:32;100326.91;;;13.21;nan
37694;BME280;23531;50.122;8.644;2023-05-12T03:59:35;100333.28;;;13.26;nan
37694;BME280;23531;50.122;8.644;2023-05-12T04:01:40;100326.34;;;13.19;nan
37694;BME280;23531;50.122;8.644;2023-05-12T04:03:41;100330.44;;;13.21;nan
37694;BME280;23531;50.122;8.644;2023-05-12T04:05:43;100332.59;;;13.13;nan
37694;BME280;23531;50.122;8.644;2023-05-12T04:07:44;100336.31;;;13.18;nan
37694;BME280;23531;50.122;8.644;2023-05-12T04:09:47;100339.13;;;13.23;nan
37694;BME280;23531;50.122;8.644;2023-05-12T04:11:48;100338.31;;;13.23;nan
37694;BME280;23531;50.122;8.644;2023-05-12T04:13:50;100343.63;;;13.29;nan
37694;BME280;23531;50.122;8.644;2023-05-12T04:15:53;100341.97;;;13.28;nan
37694;BME280;23531;50.122;8.644;2023-05-12T04:17:58;100345.03;;;13.32;nan
37694;BME280;23531;50.122;8.644;2023-05-12T04:20:02;100345.84;;;13.32;nan
37694;BME280;23531;50.122;8.644;2023-05-12T04:22:07;100351.41;;;13.37;nan
37694;BME280;23531;50.122;8.644;2023-05-12T04:24:09;100349.41;;;13.44;nan
37694;BME280;23531;50.122;8.644;2023-05-12T04:26:12;100353.78;;;13.57;nan
37694;BME280;23531;50.122;8.644;2023-05-12T04:28:13;100349.81;;;13.60;nan
37694;BME280;23531;50.122;8.644;2023-05-12T04:30:15;100358.50;;;13.62;nan
37694;BME280;23531;50.122;8.644;2023-05-12T04:32:16;100352.28;;;13.61;nan
37694;BME280;23531;50.122;8.644;2023-05-12T04:34:18;100357.13;;;13.71;nan
37694;BME280;23531;50.122;8.644;2023-05-12T04:36:20;100357.09;;;13.59;nan
37694;BME280;23531;50.122;8.644;2023-05-12T04:38:22;100353.41;;;13.42;nan
37694;BME280;23531;50.122;8.644;2023-05-12T04:40:24;100354.97;;;13.50;nan
37694;BME280;23531;50.122;8.644;2023-05-12T04:42:27;100358.84;;;13.54;nan
37694;BME280;23531;50.122;8.644;2023-05-12T04:44:28;100358.06;;;13.65;nan
37694;BME280;23531;50.122;8.644;2023-05-12T04:46:30;100357.94;;;13.71;nan
37694;BME280;23531;50.122;8.644;2023-05-12T04:48:31;100365.22;;;13.71;nan
37694;BME280;23531;50.122;8.644;2023-05-12T04:50:33;100365.81;;;13.73;nan
37694;BME280;23531;50.122;8.644;2023-05-12T04:52:35;100363.13;;;13.73;nan
37694;BME280;23531;50.122;8.644;2023-05-12T04:54:36;100371.22;;;13.73;nan
37694;BME280;23531;50.122;8.644;2023-05-12T04:56:39;100372.41;;;13.77;nan
37694;BME280;23531;50.122;8.644;2023-05-12T04:58:42;100379.91;;;13.63;nan
37694;BME280;23531;50.122;8.644;2023-05-12T05:00:43;100375.16;;;13.47;nan
37694;BME280;23531;50.122;8.644;2023-05-12T05:02:44;100381.53;;;13.53;nan
37694;BME280;23531;50.122;8.644;2023-05-12T05:04:46;100381.75;;;13.51;nan
37694;BME280;23531;50.122;8.644;2023-05-12T05:06:48;100375.38;;;13.45;nan
37694;BME280;23531;50.122;8.644;2023-05-12T05:08:50;100384.34;;;13.58;nan
37694;BME280;23531;50.122;8.644;2023-05-12T05:10:52;100383.78;;;13.67;nan
37694;BME280;23531;50.122;8.644;2023-05-12T05:12:53;100390.50;;;13.65;nan
37694;BME280;23531;50.122;8.644;2023-05-12T05:14:57;100390.75;;;13.45;nan
37694;BME280;23531;50.122;8.644;2023-05-12T05:16:59;100385.13;;;13.47;nan
37694;BME280;23531;50.122;8.644;2023-05-12T05:19:01;100392.28;;;13.41;nan
37694;BME280;23531;50.122;8.644;2023-05-12T05:21:02;100391.69;;;13.39;nan
37694;BME280;23531;50.122;8.644;2023-05-12T05:23:04;100393.81;;;13.49;nan
37694;BME280;23531;50.122;8.644;2023-05-12T05:25:06;100392.63;;;13.44;nan
37694;BME280;23531;50.122;8.644;2023-05-12T05:27:08;100401.09;;;13.48;nan
37694;BME280;23531;50.122;8.644;2023-05-12T05:29:09;100401.56;;;13.45;nan
37694;BME280;23531;50.122;8.644;2023-05-12T05:31:15;100399.56;;;13.40;nan
37694;BME280;23531;50.122;8.644;2023-05-12T05:33:16;100406.38;;;13.43;nan
37694;BME280;23531;50.122;8.644;2023-05-12T05:35:18;100404.78;;;13.54;nan
37694;BME280;23531;50.122;8.644;2023-05-12T05:37:20;100407.59;;;13.59;nan
37694;BME280;23531;50.122;8.644;2023-05-12T05:39:22;100407.03;;;13.68;nan
37694;BME280;23531;50.122;8.644;2023-05-12T05:41:24;100411.00;;;13.54;nan
37694;BME280;23531;50.122;8.644;2023-05-12T05:43:26;100408.16;;;13.49;nan
37694;BME280;23531;50.122;8.644;2023-05-12T05:45:28;100411.41;;;13.39;nan
37694;BME280;23531;50.122;8.644;2023-05-12T05:47:31;100415.00;;;13.33;nan
37694;BME280;23531;50.122;8.644;2023-05-12T05:49:33;100419.25;;;13.29;nan
37694;BME280;23531;50.122;8.644;2023-05-12T05:51:34;100415.28;;;13.43;nan
37694;BME280;23531;50.122;8.644;2023-05-12T05:53:36;100423.03;;;13.40;nan
37694;BME280;23531;50.122;8.644;2023-05-12T05:55:38;100421.88;;;13.48;nan
37694;BME280;23531;50.122;8.644;2023-05-12T05:57:39;100428.56;;;13.45;nan
37694;BME280;23531;50.122;8.644;2023-05-12T05:59:44;100431.03;;;13.47;nan
37694;BME280;23531;50.122;8.644;2023-05-12T06:01:46;100428.00;;;13.55;nan
37694;BME280;23531;50.122;8.644;2023-05-12T06:03:50;100426.00;;;13.50;nan
37694;BME280;23531;50.122;8.644;2023-05-12T06:05:51;100430.41;;;13.63;nan
37694;BME280;23531;50.122;8.644;2023-05-12T06:07:56;100428.09;;;13.78;nan
37694;BME280;23531;50.122;8.644;2023-05-12T06:09:58;100431.75;;;13.84;nan
37694;BME280;23531;50.122;8.644;2023-05-12T06:12:08;100435.41;;;13.89;nan
37694;BME280;23531;50.122;8.644;2023-05-12T06:14:10;100437.06;;;13.90;nan
37694;BME280;23531;50.122;8.644;2023-05-12T06:16:11;100443.81;;;13.99;nan
37694;BME280;23531;50.122;8.644;2023-05-12T06:18:13;100441.56;;;13.96;nan
37694;BME280;23531;50.122;8.644;2023-05-12T06:20:16;100444.72;;;13.93;nan
37694;BME280;23531;50.122;8.644;2023-05-12T06:22:19;100446.97;;;13.96;nan
37694;BME280;23531;50.122;8.644;2023-05-12T06:24:20;100451.63;;;13.89;nan
37694;BME280;23531;50.122;8.644;2023-05-12T06:26:21;100449.72;;;13.78;nan
37694;BME280;23531;50.122;8.644;2023-05-12T06:28:23;100459.53;;;13.61;nan
37694;BME280;23531;50.122;8.644;2023-05-12T06:30:24;100453.91;;;13.62;nan
37694;BME280;23531;50.122;8.644;2023-05-12T06:32:29;100458.81;;;13.54;nan
37694;BME280;23531;50.122;8.644;2023-05-12T06:34:31;100465.38;;;13.58;nan
37694;BME280;23531;50.122;8.644;2023-05-12T06:36:33;100459.75;;;13.59;nan
37694;BME280;23531;50.122;8.644;2023-05-12T06:38:35;100467.22;;;13.75;nan
37694;BME280;23531;50.122;8.644;2023-05-12T06:40:37;100453.94;;;13.74;nan
37694;BME280;23531;50.122;8.644;2023-05-12T06:42:38;100458.53;;;13.73;nan
37694;BME280;23531;50.122;8.644;2023-05-12T06:44:40;100461.56;;;13.65;nan
37694;BME280;23531;50.122;8.644;2023-05-12T06:46:42;100461.84;;;13.75;nan
37694;BME280;23531;50.122;8.644;2023-05-12T06:48:43;100460.81;;;13.88;nan
37694;BME280;23531;50.122;8.644;2023-05-12T06:50:48;100470.59;;;14.01;nan
37694;BME280;23531;50.122;8.644;2023-05-12T06:52:52;100467.34;;;14.10;nan
37694;BME280;23531;50.122;8.644;2023-05-12T06:54:54;100464.75;;;14.15;nan
37694;BME280;23531;50.122;8.644;2023-05-12T06:57:04;100459.34;;;14.27;nan
37694;BME280;23531;50.122;8.644;2023-05-12T06:59:08;100460.06;;;14.34;nan
37694;BME280;23531;50.122;8.644;2023-05-12T07:01:10;100459.16;;;14.40;nan
37694;BME280;23531;50.122;8.644;2023-05-12T07:03:12;100458.78;;;14.37;nan
37694;BME280;23531;50.122;8.644;2023-05-12T07:05:13;100460.59;;;14.43;nan
37694;BME280;23531;50.122;8.644;2023-05-12T07:07:17;100461.16;;;14.45;nan
37694;BME280;23531;50.122;8.644;2023-05-12T07:09:21;100460.81;;;14.41;nan
37694;BME280;23531;50.122;8.644;2023-05-12T07:11:22;100455.50;;;14.46;nan
37694;BME280;23531;50.122;8.644;2023-05-12T07:13:25;100468.00;;;14.47;nan
37694;BME280;23531;50.122;8.644;2023-05-12T07:15:27;100470.34;;;14.44;nan
37694;BME280;23531;50.122;8.644;2023-05-12T07:17:30;100461.66;;;14.42;nan
37694;BME280;23531;50.122;8.644;2023-05-12T07:19:31;100470.94;;;14.46;nan
37694;BME280;23531;50.122;8.644;2023-05-12T07:21:34;100471.19;;;14.44;nan
37694;BME280;23531;50.122;8.644;2023-05-12T07:23:36;100464.94;;;14.44;nan
37694;BME280;23531;50.122;8.644;2023-05-12T07:25:39;100471.88;;;14.40;nan
37694;BME280;23531;50.122;8.644;2023-05-12T07:27:41;100470.81;;;14.41;nan
37694;BME280;23531;50.122;8.644;2023-05-12T07:29:42;100471.97;;;14.45;nan
37694;BME280;23531;50.122;8.644;2023-05-12T07:31:44;100471.97;;;14.45;nan
37694;BME280;23531;50.122;8.644;2023-05-12T07:33:46;100476.34;;;14.46;nan
37694;BME280;23531;50.122;8.644;2023-05-12T07:35:48;100476.34;;;14.46;nan
37694;BME280;23531;50.122;8.644;2023-05-12T07:37:50;100476.47;;;14.51;nan
37694;BME280;23531;50.122;8.644;2023-05-12T07:39:51;100481.88;;;14.51;nan
37694;BME280;23531;50.122;8.644;2023-05-12T07:41:54;100476.34;;;14.46;nan
37694;BME280;23531;50.122;8.644;2023-05-12T07:43:56;100487.88;;;14.41;nan
37694;BME280;23531;50.122;8.644;2023-05-12T07:45:57;100471.41;;;14.43;nan
37694;BME280;23531;50.122;8.644;2023-05-12T07:48:00;100476.94;;;14.48;nan
37694;BME280;23531;50.122;8.644;2023-05-12T07:50:01;100472.91;;;14.39;nan
37694;BME280;23531;50.122;8.644;2023-05-12T07:52:02;100477.06;;;14.41;nan
37694;BME280;23531;50.122;8.644;2023-05-12T07:54:04;100471.66;;;14.41;nan
37694;BME280;23531;50.122;8.644;2023-05-12T07:56:06;100475.78;;;14.44;nan
37694;BME280;23531;50.122;8.644;2023-05-12T07:58:08;100471.97;;;14.45;nan
37694;BME280;23531;50.122;8.644;2023-05-12T08:00:11;100467.84;;;14.31;nan
37694;BME280;23531;50.122;8.644;2023-05-12T08:02:12;100474.78;;;14.38;nan
37694;BME280;23531;50.122;8.644;2023-05-12T08:04:13;100473.75;;;14.39;nan
37694;BME280;23531;50.122;8.644;2023-05-12T08:06:15;100481.97;;;14.33;nan
37694;BME280;23531;50.122;8.644;2023-05-12T08:08:16;100467.94;;;14.36;nan
37694;BME280;23531;50.122;8.644;2023-05-12T08:10:17;100479.72;;;14.30;nan
37694;BME280;23531;50.122;8.644;2023-05-12T08:12:19;100473.72;;;14.28;nan
37694;BME280;23531;50.122;8.644;2023-05-12T08:14:22;100470.81;;;14.41;nan
37694;BME280;23531;50.122;8.644;2023-05-12T08:16:24;100481.28;;;14.49;nan
37694;BME280;23531;50.122;8.644;2023-05-12T08:18:25;100472.34;;;14.48;nan
37694;BME280;23531;50.122;8.644;2023-05-12T08:20:27;100475.41;;;14.52;nan
37694;BME280;23531;50.122;8.644;2023-05-12T08:22:28;100474.97;;;14.55;nan
37694;BME280;23531;50.122;8.644;2023-05-12T08:24:30;100468.94;;;14.65;nan
37694;BME280;23531;50.122;8.644;2023-05-12T08:26:31;100466.56;;;14.68;nan
37694;BME280;23531;50.122;8.644;2023-05-12T08:28:32;100460.69;;;14.71;nan
37694;BME280;23531;50.122;8.644;2023-05-12T08:30:35;100462.56;;;14.82;nan
37694;BME280;23531;50.122;8.644;2023-05-12T08:32:36;100467.53;;;14.85;nan
37694;BME280;23531;50.122;8.644;2023-05-12T08:34:38;100461.75;;;14.82;nan
37694;BME280;23531;50.122;8.644;2023-05-12T08:36:39;100467.50;;;14.97;nan
37694;BME280;23531;50.122;8.644;2023-05-12T08:38:41;100467.63;;;14.90;nan
37694;BME280;23531;50.122;8.644;2023-05-12T08:40:46;100469.41;;;14.97;nan
37694;BME280;23531;50.122;8.644;2023-05-12T08:42:55;100470.66;;;15.06;nan
37694;BME280;23531;50.122;8.644;2023-05-12T08:45:00;100472.19;;;15.13;nan
37694;BME280;23531;50.122;8.644;2023-05-12T08:47:04;100471.63;;;15.11;nan
37694;BME280;23531;50.122;8.644;2023-05-12T08:49:06;100471.03;;;15.09;nan
37694;BME280;23531;50.122;8.644;2023-05-12T08:51:10;100472.09;;;15.08;nan
37694;BME280;23531;50.122;8.644;2023-05-12T08:53:13;100473.59;;;15.16;nan
37694;BME280;23531;50.122;8.644;2023-05-12T08:55:16;100470.28;;;15.14;nan
37694;BME280;23531;50.122;8.644;2023-05-12T08:57:18;100471.94;;;15.15;nan
37694;BME280;23531;50.122;8.644;2023-05-12T08:59:20;100469.22;;;15.15;nan
37694;BME280;23531;50.122;8.644;2023-05-12T09:01:23;100465.00;;;15.19;nan
37694;BME280;23531;50.122;8.644;2023-05-12T09:03:26;100472.31;;;15.18;nan
37694;BME280;23531;50.122;8.644;2023-05-12T09:05:27;100471.81;;;15.21;nan
37694;BME280;23531;50.122;8.644;2023-05-12T09:07:29;100474.00;;;15.36;nan
37694;BME280;23531;50.122;8.644;2023-05-12T09:09:31;100469.56;;;15.30;nan
37694;BME280;23531;50.122;8.644;2023-05-12T09:11:33;100474.75;;;15.32;nan
37694;BME280;23531;50.122;8.644;2023-05-12T09:13:35;100468.50;;;15.31;nan
37694;BME280;23531;50.122;8.644;2023-05-12T09:15:41;100467.66;;;15.42;nan
37694;BME280;23531;50.122;8.644;2023-05-12T09:17:44;100462.59;;;15.34;nan
37694;BME280;23531;50.122;8.644;2023-05-12T09:19:47;100454.56;;;15.39;nan
37694;BME280;23531;50.122;8.644;2023-05-12T09:21:48;100462.69;;;15.39;nan
37694;BME280;23531;50.122;8.644;2023-05-12T09:23:53;100465.84;;;15.48;nan
37694;BME280;23531;50.122;8.644;2023-05-12T09:25:58;100463.88;;;15.43;nan
37694;BME280;23531;50.122;8.644;2023-05-12T09:28:00;100469.56;;;15.30;nan
37694;BME280;23531;50.122;8.644;2023-05-12T09:30:01;100453.13;;;15.48;nan
37694;BME280;23531;50.122;8.644;2023-05-12T09:32:03;100468.31;;;15.49;nan
37694;BME280;23531;50.122;8.644;2023-05-12T09:34:06;100462.56;;;15.57;nan
37694;BME280;23531;50.122;8.644;2023-05-12T09:36:09;100459.34;;;15.60;nan
37694;BME280;23531;50.122;8.644;2023-05-12T09:38:11;100460.88;;;15.68;nan
37694;BME280;23531;50.122;8.644;2023-05-12T09:40:13;100457.53;;;15.78;nan
37694;BME280;23531;50.122;8.644;2023-05-12T09:42:15;100456.94;;;15.92;nan
37694;BME280;23531;50.122;8.644;2023-05-12T09:44:17;100450.22;;;15.95;nan
37694;BME280;23531;50.122;8.644;2023-05-12T09:46:19;100450.03;;;15.85;nan
37694;BME280;23531;50.122;8.644;2023-05-12T09:48:21;100456.94;;;15.92;nan
37694;BME280;23531;50.122;8.644;2023-05-12T09:50:22;100457.53;;;15.94;nan
37694;BME280;23531;50.122;8.644;2023-05-12T09:52:25;100446.09;;;15.92;nan
37694;BME280;23531;50.122;8.644;2023-05-12T09:54:26;100447.69;;;16.05;nan
37694;BME280;23531;50.122;8.644;2023-05-12T09:56:29;100462.31;;;16.04;nan
37694;BME280;23531;50.122;8.644;2023-05-12T09:58:31;100454.44;;;16.03;nan
37694;BME280;23531;50.122;8.644;2023-05-12T10:00:33;100457.00;;;16.09;nan
37694;BME280;23531;50.122;8.644;2023-05-12T10:02:34;100456.34;;;16.19;nan
37694;BME280;23531;50.122;8.644;2023-05-12T10:04:42;100464.22;;;16.20;nan
37694;BME280;23531;50.122;8.644;2023-05-12T10:06:44;100462.16;;;16.27;nan
37694;BME280;23531;50.122;8.644;2023-05-12T10:08:50;100457.66;;;16.33;nan
37694;BME280;23531;50.122;8.644;2023-05-12T10:10:52;100455.78;;;16.33;nan
37694;BME280;23531;50.122;8.644;2023-05-12T10:12:56;100458.31;;;16.23;nan
37694;BME280;23531;50.122;8.644;2023-05-12T10:14:58;100456.16;;;16.25;nan
37694;BME280;23531;50.122;8.644;2023-05-12T10:17:00;100458.97;;;16.30;nan
37694;BME280;23531;50.122;8.644;2023-05-12T10:19:02;100458.81;;;16.20;nan
37694;BME280;23531;50.122;8.644;2023-05-12T10:21:04;100459.03;;;16.19;nan
37694;BME280;23531;50.122;8.644;2023-05-12T10:23:05;100462.69;;;16.24;nan
37694;BME280;23531;50.122;8.644;2023-05-12T10:25:08;100455.75;;;16.17;nan
37694;BME280;23531;50.122;8.644;2023-05-12T10:27:10;100462.25;;;16.16;nan
37694;BME280;23531;50.122;8.644;2023-05-12T10:29:12;100463.56;;;16.13;nan
37694;BME280;23531;50.122;8.644;2023-05-12T10:31:13;100461.28;;;16.22;nan
37694;BME280;23531;50.122;8.644;2023-05-12T10:33:15;100457.16;;;16.19;nan
37694;BME280;23531;50.122;8.644;2023-05-12T10:35:16;100463.41;;;16.20;nan
37694;BME280;23531;50.122;8.644;2023-05-12T10:37:18;100455.50;;;16.18;nan
37694;BME280;23531;50.122;8.644;2023-05-12T10:39:26;100459.03;;;16.19;nan
37694;BME280;23531;50.122;8.644;2023-05-12T10:41:29;100470.47;;;16.21;nan
37694;BME280;23531;50.122;8.644;2023-05-12T10:43:36;100457.97;;;16.20;nan
37694;BME280;23531;50.122;8.644;2023-05-12T10:45:38;100460.94;;;16.18;nan
37694;BME280;23531;50.122;8.644;2023-05-12T10:47:41;100458.31;;;16.23;nan
37694;BME280;23531;50.122;8.644;2023-05-12T10:49:42;100463.56;;;16.30;nan
37694;BME280;23531;50.122;8.644;2023-05-12T10:51:47;100464.88;;;16.27;nan
37694;BME280;23531;50.122;8.644;2023-05-12T10:53:50;100465.28;;;16.19;nan
37694;BME280;23531;50.122;8.644;2023-05-12T10:55:51;100466.84;;;16.15;nan